< < Back
Terminal Aerodrome Forecast


Current Version              Previous Versions:   1  2  3  4  5  6  7  8  9  

Terminal Aerodrome Forecast

328
FTUS42 KJAX 012320
TAFSSI
TAF
KSSI 012320Z 0200/0224 12011KT P6SM SCT100 BKN250
     FM020200 15005KT P6SM BKN250
     FM021400 16010KT P6SM SCT035 BKN200=



Latest METAR

272
SAUS70 KWBC 020300 RRI
MTRSSI
METAR KSSI 020253Z AUTO 00000KT 10SM CLR 23/23 A3007 RMK AO2 SLP184
60000 T02330228 51016


USA.gov is the U.S. government's official web portal to all federal, state and local government web resources and services.